sensor_id;sensor_type;location;lat;lon;timestamp;temperature;humidity
14783;DHT22;7483;50.498;12.138;2022-11-15T00:00:27;7.70;99.90
14783;DHT22;7483;50.498;12.138;2022-11-15T00:03:14;7.70;99.90
14783;DHT22;7483;50.498;12.138;2022-11-15T00:06:02;7.70;99.90
14783;DHT22;7483;50.498;12.138;2022-11-15T00:08:49;7.70;99.90
14783;DHT22;7483;50.498;12.138;2022-11-15T00:11:35;7.70;99.90
14783;DHT22;7483;50.498;12.138;2022-11-15T00:14:22;7.70;99.90
14783;DHT22;7483;50.498;12.138;2022-11-15T00:17:10;7.70;99.90
14783;DHT22;7483;50.498;12.138;2022-11-15T00:19:57;7.70;99.90
14783;DHT22;7483;50.498;12.138;2022-11-15T00:22:44;7.70;99.90
14783;DHT22;7483;50.498;12.138;2022-11-15T00:25:30;7.70;99.90
14783;DHT22;7483;50.498;12.138;2022-11-15T00:28:17;7.70;99.90
14783;DHT22;7483;50.498;12.138;2022-11-15T00:31:06;7.70;99.90
14783;DHT22;7483;50.498;12.138;2022-11-15T00:33:56;7.70;99.90
14783;DHT22;7483;50.498;12.138;2022-11-15T00:36:43;7.70;99.90
14783;DHT22;7483;50.498;12.138;2022-11-15T00:39:29;7.70;99.90
14783;DHT22;7483;50.498;12.138;2022-11-15T00:42:18;7.70;99.90
14783;DHT22;7483;50.498;12.138;2022-11-15T00:45:09;7.70;99.90
14783;DHT22;7483;50.498;12.138;2022-11-15T00:47:56;7.70;99.90
14783;DHT22;7483;50.498;12.138;2022-11-15T00:50:44;7.60;99.90
14783;DHT22;7483;50.498;12.138;2022-11-15T00:53:31;7.60;99.90
14783;DHT22;7483;50.498;12.138;2022-11-15T00:56:18;7.60;99.90
14783;DHT22;7483;50.498;12.138;2022-11-15T00:59:05;7.60;99.90
14783;DHT22;7483;50.498;12.138;2022-11-15T01:01:52;7.60;99.90
14783;DHT22;7483;50.498;12.138;2022-11-15T01:04:38;7.50;99.90
14783;DHT22;7483;50.498;12.138;2022-11-15T01:07:27;7.50;99.90
14783;DHT22;7483;50.498;12.138;2022-11-15T01:10:14;7.50;99.90
14783;DHT22;7483;50.498;12.138;2022-11-15T01:13:00;7.40;99.90
14783;DHT22;7483;50.498;12.138;2022-11-15T01:15:47;7.40;99.90
14783;DHT22;7483;50.498;12.138;2022-11-15T01:18:34;7.40;99.90
14783;DHT22;7483;50.498;12.138;2022-11-15T01:21:21;7.40;99.90
14783;DHT22;7483;50.498;12.138;2022-11-15T01:24:12;7.40;99.90
14783;DHT22;7483;50.498;12.138;2022-11-15T01:26:59;7.50;99.90
14783;DHT22;7483;50.498;12.138;2022-11-15T01:29:45;7.50;99.90
14783;DHT22;7483;50.498;12.138;2022-11-15T01:32:32;7.50;99.90
14783;DHT22;7483;50.498;12.138;2022-11-15T01:35:19;7.40;99.90
14783;DHT22;7483;50.498;12.138;2022-11-15T01:38:05;7.40;99.90
14783;DHT22;7483;50.498;12.138;2022-11-15T01:40:54;7.40;99.90
14783;DHT22;7483;50.498;12.138;2022-11-15T01:43:40;7.40;99.90
14783;DHT22;7483;50.498;12.138;2022-11-15T01:46:29;7.40;99.90
14783;DHT22;7483;50.498;12.138;2022-11-15T01:49:20;7.40;99.90
14783;DHT22;7483;50.498;12.138;2022-11-15T01:52:12;7.40;99.90
14783;DHT22;7483;50.498;12.138;2022-11-15T01:55:05;7.40;99.90
14783;DHT22;7483;50.498;12.138;2022-11-15T01:57:58;7.30;99.90
14783;DHT22;7483;50.498;12.138;2022-11-15T02:00:48;7.30;99.90
14783;DHT22;7483;50.498;12.138;2022-11-15T02:03:39;7.30;99.90
14783;DHT22;7483;50.498;12.138;2022-11-15T02:06:30;7.30;99.90
14783;DHT22;7483;50.498;12.138;2022-11-15T02:09:17;7.20;99.90
14783;DHT22;7483;50.498;12.138;2022-11-15T02:12:05;7.20;99.90
14783;DHT22;7483;50.498;12.138;2022-11-15T02:14:56;7.20;99.90
14783;DHT22;7483;50.498;12.138;2022-11-15T02:17:56;7.10;99.90
14783;DHT22;7483;50.498;12.138;2022-11-15T02:20:58;7.10;99.90
14783;DHT22;7483;50.498;12.138;2022-11-15T02:24:21;7.10;99.90
14783;DHT22;7483;50.498;12.138;2022-11-15T02:27:48;7.10;99.90
14783;DHT22;7483;50.498;12.138;2022-11-15T02:30:49;7.00;99.90
14783;DHT22;7483;50.498;12.138;2022-11-15T02:33:45;7.00;99.90
14783;DHT22;7483;50.498;12.138;2022-11-15T02:36:42;7.00;99.90
14783;DHT22;7483;50.498;12.138;2022-11-15T02:39:40;6.90;99.90
14783;DHT22;7483;50.498;12.138;2022-11-15T02:42:36;6.90;99.90
14783;DHT22;7483;50.498;12.138;2022-11-15T02:46:01;6.90;99.90
14783;DHT22;7483;50.498;12.138;2022-11-15T02:48:53;6.90;99.90
14783;DHT22;7483;50.498;12.138;2022-11-15T02:51:40;6.80;99.90
14783;DHT22;7483;50.498;12.138;2022-11-15T02:54:30;6.80;99.90
14783;DHT22;7483;50.498;12.138;2022-11-15T02:57:22;6.80;99.90
14783;DHT22;7483;50.498;12.138;2022-11-15T03:00:18;6.90;99.90
14783;DHT22;7483;50.498;12.138;2022-11-15T03:03:24;6.90;99.90
14783;DHT22;7483;50.498;12.138;2022-11-15T03:06:29;6.90;99.90
14783;DHT22;7483;50.498;12.138;2022-11-15T03:09:29;6.90;99.90
14783;DHT22;7483;50.498;12.138;2022-11-15T03:12:25;6.90;99.90
14783;DHT22;7483;50.498;12.138;2022-11-15T03:15:20;6.90;99.90
14783;DHT22;7483;50.498;12.138;2022-11-15T03:18:17;6.90;99.90
14783;DHT22;7483;50.498;12.138;2022-11-15T03:21:09;6.80;99.90
14783;DHT22;7483;50.498;12.138;2022-11-15T03:23:58;6.90;99.90
14783;DHT22;7483;50.498;12.138;2022-11-15T03:26:53;6.80;99.90
14783;DHT22;7483;50.498;12.138;2022-11-15T03:29:46;6.80;99.90
14783;DHT22;7483;50.498;12.138;2022-11-15T03:32:41;6.80;99.90
14783;DHT22;7483;50.498;12.138;2022-11-15T03:35:37;6.90;99.90
14783;DHT22;7483;50.498;12.138;2022-11-15T03:38:29;6.90;99.90
14783;DHT22;7483;50.498;12.138;2022-11-15T03:41:23;6.90;99.90
14783;DHT22;7483;50.498;12.138;2022-11-15T03:44:19;6.90;99.90
14783;DHT22;7483;50.498;12.138;2022-11-15T03:47:16;6.90;99.90
14783;DHT22;7483;50.498;12.138;2022-11-15T03:50:10;7.00;99.90
14783;DHT22;7483;50.498;12.138;2022-11-15T03:53:01;7.00;99.90
14783;DHT22;7483;50.498;12.138;2022-11-15T03:55:48;7.00;99.90
14783;DHT22;7483;50.498;12.138;2022-11-15T03:58:35;7.00;99.90
14783;DHT22;7483;50.498;12.138;2022-11-15T04:01:22;7.00;99.90
14783;DHT22;7483;50.498;12.138;2022-11-15T04:04:09;7.00;99.90
14783;DHT22;7483;50.498;12.138;2022-11-15T04:06:55;7.00;99.90
14783;DHT22;7483;50.498;12.138;2022-11-15T04:09:43;7.00;99.90
14783;DHT22;7483;50.498;12.138;2022-11-15T04:12:48;7.00;99.90
14783;DHT22;7483;50.498;12.138;2022-11-15T04:15:35;7.00;99.90
14783;DHT22;7483;50.498;12.138;2022-11-15T04:18:22;7.00;99.90
14783;DHT22;7483;50.498;12.138;2022-11-15T04:21:09;7.00;99.90
14783;DHT22;7483;50.498;12.138;2022-11-15T04:24:14;7.00;99.90
14783;DHT22;7483;50.498;12.138;2022-11-15T04:27:02;7.00;99.90
14783;DHT22;7483;50.498;12.138;2022-11-15T04:29:49;6.90;99.90
14783;DHT22;7483;50.498;12.138;2022-11-15T04:32:36;6.90;99.90
14783;DHT22;7483;50.498;12.138;2022-11-15T04:35:23;6.80;99.90
14783;DHT22;7483;50.498;12.138;2022-11-15T04:38:10;6.80;99.90
14783;DHT22;7483;50.498;12.138;2022-11-15T04:40:59;6.80;99.90
14783;DHT22;7483;50.498;12.138;2022-11-15T04:43:47;6.80;99.90
14783;DHT22;7483;50.498;12.138;2022-11-15T04:46:34;6.80;99.90
14783;DHT22;7483;50.498;12.138;2022-11-15T04:49:21;6.80;99.90
14783;DHT22;7483;50.498;12.138;2022-11-15T04:52:07;6.80;99.90
14783;DHT22;7483;50.498;12.138;2022-11-15T04:54:54;6.80;99.90
14783;DHT22;7483;50.498;12.138;2022-11-15T04:57:41;6.80;99.90
14783;DHT22;7483;50.498;12.138;2022-11-15T05:00:29;6.80;99.90
14783;DHT22;7483;50.498;12.138;2022-11-15T05:03:16;6.90;99.90
14783;DHT22;7483;50.498;12.138;2022-11-15T05:06:21;6.90;99.90
14783;DHT22;7483;50.498;12.138;2022-11-15T05:09:08;6.90;99.90
14783;DHT22;7483;50.498;12.138;2022-11-15T05:11:55;6.90;99.90
14783;DHT22;7483;50.498;12.138;2022-11-15T05:14:42;6.80;99.90
14783;DHT22;7483;50.498;12.138;2022-11-15T05:17:30;6.80;99.90
14783;DHT22;7483;50.498;12.138;2022-11-15T05:20:19;6.80;99.90
14783;DHT22;7483;50.498;12.138;2022-11-15T05:23:07;6.80;99.90
14783;DHT22;7483;50.498;12.138;2022-11-15T05:25:58;6.80;99.90
14783;DHT22;7483;50.498;12.138;2022-11-15T05:28:53;6.70;99.90
14783;DHT22;7483;50.498;12.138;2022-11-15T05:31:41;6.70;99.90
14783;DHT22;7483;50.498;12.138;2022-11-15T05:34:30;6.70;99.90
14783;DHT22;7483;50.498;12.138;2022-11-15T05:37:17;6.80;99.90
14783;DHT22;7483;50.498;12.138;2022-11-15T05:40:10;6.80;99.90
14783;DHT22;7483;50.498;12.138;2022-11-15T05:43:11;6.80;99.90
14783;DHT22;7483;50.498;12.138;2022-11-15T05:45:59;6.80;99.90
14783;DHT22;7483;50.498;12.138;2022-11-15T05:48:52;6.70;99.90
14783;DHT22;7483;50.498;12.138;2022-11-15T05:51:44;6.70;99.90
14783;DHT22;7483;50.498;12.138;2022-11-15T05:54:34;6.80;99.90
14783;DHT22;7483;50.498;12.138;2022-11-15T05:57:22;6.70;99.90
14783;DHT22;7483;50.498;12.138;2022-11-15T06:00:11;6.70;99.90
14783;DHT22;7483;50.498;12.138;2022-11-15T06:02:58;6.70;99.90
14783;DHT22;7483;50.498;12.138;2022-11-15T06:05:45;6.70;99.90
14783;DHT22;7483;50.498;12.138;2022-11-15T06:08:34;6.70;99.90
14783;DHT22;7483;50.498;12.138;2022-11-15T06:11:20;6.70;99.90
14783;DHT22;7483;50.498;12.138;2022-11-15T06:14:07;6.70;99.90
14783;DHT22;7483;50.498;12.138;2022-11-15T06:16:54;6.70;99.90
14783;DHT22;7483;50.498;12.138;2022-11-15T06:19:41;6.70;99.90
14783;DHT22;7483;50.498;12.138;2022-11-15T06:22:29;6.80;99.90
14783;DHT22;7483;50.498;12.138;2022-11-15T06:25:17;6.70;99.90
14783;DHT22;7483;50.498;12.138;2022-11-15T06:28:04;6.70;99.90
14783;DHT22;7483;50.498;12.138;2022-11-15T06:30:51;6.60;99.90
14783;DHT22;7483;50.498;12.138;2022-11-15T06:33:38;6.60;99.90
14783;DHT22;7483;50.498;12.138;2022-11-15T06:36:25;6.60;99.90
14783;DHT22;7483;50.498;12.138;2022-11-15T06:39:12;6.70;99.90
14783;DHT22;7483;50.498;12.138;2022-11-15T06:42:00;6.70;99.90
14783;DHT22;7483;50.498;12.138;2022-11-15T06:44:47;6.60;99.90
14783;DHT22;7483;50.498;12.138;2022-11-15T06:47:34;6.70;99.90
14783;DHT22;7483;50.498;12.138;2022-11-15T06:50:21;6.60;99.90
14783;DHT22;7483;50.498;12.138;2022-11-15T06:53:07;6.70;99.90
14783;DHT22;7483;50.498;12.138;2022-11-15T06:55:58;6.70;99.90
14783;DHT22;7483;50.498;12.138;2022-11-15T06:58:47;6.70;99.90
14783;DHT22;7483;50.498;12.138;2022-11-15T07:01:34;6.80;99.90
14783;DHT22;7483;50.498;12.138;2022-11-15T07:04:21;6.70;99.90
14783;DHT22;7483;50.498;12.138;2022-11-15T07:07:07;6.70;99.90
14783;DHT22;7483;50.498;12.138;2022-11-15T07:09:54;6.70;99.90
14783;DHT22;7483;50.498;12.138;2022-11-15T07:12:41;6.70;99.90
14783;DHT22;7483;50.498;12.138;2022-11-15T07:15:29;6.70;99.90
14783;DHT22;7483;50.498;12.138;2022-11-15T07:18:16;6.70;99.90
14783;DHT22;7483;50.498;12.138;2022-11-15T07:21:03;6.70;99.90
14783;DHT22;7483;50.498;12.138;2022-11-15T07:23:52;6.80;99.90
14783;DHT22;7483;50.498;12.138;2022-11-15T07:26:38;6.80;99.90
14783;DHT22;7483;50.498;12.138;2022-11-15T07:29:25;6.90;99.90
14783;DHT22;7483;50.498;12.138;2022-11-15T07:32:13;6.90;99.90
14783;DHT22;7483;50.498;12.138;2022-11-15T07:35:00;7.00;99.90
14783;DHT22;7483;50.498;12.138;2022-11-15T07:37:53;7.00;99.90
14783;DHT22;7483;50.498;12.138;2022-11-15T07:40:41;7.10;99.90
14783;DHT22;7483;50.498;12.138;2022-11-15T07:43:28;7.10;99.90
14783;DHT22;7483;50.498;12.138;2022-11-15T07:46:18;7.20;99.90
14783;DHT22;7483;50.498;12.138;2022-11-15T07:49:06;7.20;99.90
14783;DHT22;7483;50.498;12.138;2022-11-15T07:51:52;7.30;99.90
14783;DHT22;7483;50.498;12.138;2022-11-15T07:54:39;7.30;99.90
14783;DHT22;7483;50.498;12.138;2022-11-15T07:57:26;7.30;99.90
14783;DHT22;7483;50.498;12.138;2022-11-15T08:00:14;7.40;99.90
14783;DHT22;7483;50.498;12.138;2022-11-15T08:03:02;7.50;99.90
14783;DHT22;7483;50.498;12.138;2022-11-15T08:05:51;7.50;99.90
14783;DHT22;7483;50.498;12.138;2022-11-15T08:08:38;7.60;99.90
14783;DHT22;7483;50.498;12.138;2022-11-15T08:11:25;7.60;99.90
14783;DHT22;7483;50.498;12.138;2022-11-15T08:14:12;7.70;99.90
14783;DHT22;7483;50.498;12.138;2022-11-15T08:16:59;7.70;99.90
14783;DHT22;7483;50.498;12.138;2022-11-15T08:19:45;7.80;99.90
14783;DHT22;7483;50.498;12.138;2022-11-15T08:22:34;7.90;99.90
14783;DHT22;7483;50.498;12.138;2022-11-15T08:25:22;8.00;99.90
14783;DHT22;7483;50.498;12.138;2022-11-15T08:28:11;8.10;99.90
14783;DHT22;7483;50.498;12.138;2022-11-15T08:30:58;8.20;99.90
14783;DHT22;7483;50.498;12.138;2022-11-15T08:33:45;8.30;99.90
14783;DHT22;7483;50.498;12.138;2022-11-15T08:36:32;8.40;99.90
14783;DHT22;7483;50.498;12.138;2022-11-15T08:39:33;8.40;99.90
14783;DHT22;7483;50.498;12.138;2022-11-15T08:42:20;8.50;99.90
14783;DHT22;7483;50.498;12.138;2022-11-15T08:45:08;8.60;99.90
14783;DHT22;7483;50.498;12.138;2022-11-15T08:47:56;8.70;99.90
14783;DHT22;7483;50.498;12.138;2022-11-15T08:50:43;8.80;99.90
14783;DHT22;7483;50.498;12.138;2022-11-15T08:53:30;8.90;99.90
14783;DHT22;7483;50.498;12.138;2022-11-15T08:56:18;9.00;99.90
14783;DHT22;7483;50.498;12.138;2022-11-15T08:59:05;9.10;99.90
14783;DHT22;7483;50.498;12.138;2022-11-15T09:01:52;9.10;99.90
14783;DHT22;7483;50.498;12.138;2022-11-15T09:04:40;9.20;99.90
14783;DHT22;7483;50.498;12.138;2022-11-15T09:07:27;9.30;99.90
14783;DHT22;7483;50.498;12.138;2022-11-15T09:10:15;9.40;99.90
14783;DHT22;7483;50.498;12.138;2022-11-15T09:13:03;9.50;99.90
14783;DHT22;7483;50.498;12.138;2022-11-15T09:15:50;9.50;99.90
14783;DHT22;7483;50.498;12.138;2022-11-15T09:18:37;9.60;99.90
14783;DHT22;7483;50.498;12.138;2022-11-15T09:21:24;9.70;99.90
14783;DHT22;7483;50.498;12.138;2022-11-15T09:24:10;9.80;99.90
14783;DHT22;7483;50.498;12.138;2022-11-15T09:26:57;9.80;99.90
14783;DHT22;7483;50.498;12.138;2022-11-15T09:29:45;9.90;99.90
14783;DHT22;7483;50.498;12.138;2022-11-15T09:32:32;9.90;99.90
14783;DHT22;7483;50.498;12.138;2022-11-15T09:35:23;10.00;99.90
14783;DHT22;7483;50.498;12.138;2022-11-15T09:38:10;10.10;99.90
14783;DHT22;7483;50.498;12.138;2022-11-15T09:41:22;10.20;99.90
14783;DHT22;7483;50.498;12.138;2022-11-15T09:44:35;10.30;99.90
14783;DHT22;7483;50.498;12.138;2022-11-15T09:51:12;10.50;99.90
14783;DHT22;7483;50.498;12.138;2022-11-15T09:53:48;10.60;99.90
14783;DHT22;7483;50.498;12.138;2022-11-15T09:56:43;10.70;99.90
14783;DHT22;7483;50.498;12.138;2022-11-15T09:59:31;10.80;99.90
14783;DHT22;7483;50.498;12.138;2022-11-15T10:02:23;10.90;99.90
14783;DHT22;7483;50.498;12.138;2022-11-15T10:05:08;11.00;99.90
14783;DHT22;7483;50.498;12.138;2022-11-15T10:07:44;11.00;99.90
14783;DHT22;7483;50.498;12.138;2022-11-15T10:10:24;11.10;99.90
14783;DHT22;7483;50.498;12.138;2022-11-15T10:12:57;11.10;99.90
14783;DHT22;7483;50.498;12.138;2022-11-15T10:15:26;11.20;99.90
14783;DHT22;7483;50.498;12.138;2022-11-15T10:18:16;11.30;99.90
14783;DHT22;7483;50.498;12.138;2022-11-15T10:20:48;11.30;99.90
14783;DHT22;7483;50.498;12.138;2022-11-15T10:23:20;11.40;99.90
14783;DHT22;7483;50.498;12.138;2022-11-15T10:25:52;11.50;99.90
14783;DHT22;7483;50.498;12.138;2022-11-15T10:28:25;11.60;99.90
14783;DHT22;7483;50.498;12.138;2022-11-15T10:30:57;11.60;99.90
14783;DHT22;7483;50.498;12.138;2022-11-15T10:33:33;11.70;99.90
14783;DHT22;7483;50.498;12.138;2022-11-15T10:36:19;11.80;99.90
14783;DHT22;7483;50.498;12.138;2022-11-15T10:38:57;11.80;99.90
14783;DHT22;7483;50.498;12.138;2022-11-15T10:41:36;11.90;99.90
14783;DHT22;7483;50.498;12.138;2022-11-15T10:44:21;11.90;99.90
14783;DHT22;7483;50.498;12.138;2022-11-15T10:47:16;12.00;99.90
14783;DHT22;7483;50.498;12.138;2022-11-15T10:49:56;12.10;99.90
14783;DHT22;7483;50.498;12.138;2022-11-15T10:52:27;12.20;99.90
14783;DHT22;7483;50.498;12.138;2022-11-15T10:55:01;12.20;99.90
14783;DHT22;7483;50.498;12.138;2022-11-15T10:57:35;12.30;99.90
14783;DHT22;7483;50.498;12.138;2022-11-15T11:00:07;12.30;99.90
14783;DHT22;7483;50.498;12.138;2022-11-15T11:03:00;12.30;99.90
14783;DHT22;7483;50.498;12.138;2022-11-15T11:05:33;12.40;99.90
14783;DHT22;7483;50.498;12.138;2022-11-15T11:08:21;12.40;99.90
14783;DHT22;7483;50.498;12.138;2022-11-15T11:10:54;12.50;99.90
14783;DHT22;7483;50.498;12.138;2022-11-15T11:13:31;12.70;99.90
14783;DHT22;7483;50.498;12.138;2022-11-15T11:16:15;12.80;99.90
14783;DHT22;7483;50.498;12.138;2022-11-15T11:19:16;12.90;99.90
14783;DHT22;7483;50.498;12.138;2022-11-15T11:21:59;13.00;99.90
14783;DHT22;7483;50.498;12.138;2022-11-15T11:24:36;13.10;99.90
14783;DHT22;7483;50.498;12.138;2022-11-15T11:27:17;13.10;99.90
14783;DHT22;7483;50.498;12.138;2022-11-15T11:30:02;13.30;99.90
14783;DHT22;7483;50.498;12.138;2022-11-15T11:32:46;13.40;99.90
14783;DHT22;7483;50.498;12.138;2022-11-15T11:35:26;13.50;99.90
14783;DHT22;7483;50.498;12.138;2022-11-15T11:41:04;14.10;99.90
14783;DHT22;7483;50.498;12.138;2022-11-15T11:43:52;15.40;99.90
14783;DHT22;7483;50.498;12.138;2022-11-15T11:46:42;16.50;99.90
14783;DHT22;7483;50.498;12.138;2022-11-15T11:49:22;17.30;99.90
14783;DHT22;7483;50.498;12.138;2022-11-15T11:52:00;17.60;99.90
14783;DHT22;7483;50.498;12.138;2022-11-15T11:54:40;18.00;99.90
14783;DHT22;7483;50.498;12.138;2022-11-15T11:57:27;18.40;99.90
14783;DHT22;7483;50.498;12.138;2022-11-15T12:00:10;18.50;99.90
14783;DHT22;7483;50.498;12.138;2022-11-15T12:02:46;18.70;99.90
14783;DHT22;7483;50.498;12.138;2022-11-15T12:05:25;19.20;99.90
14783;DHT22;7483;50.498;12.138;2022-11-15T12:08:03;20.80;99.90
14783;DHT22;7483;50.498;12.138;2022-11-15T12:10:39;22.10;99.80
14783;DHT22;7483;50.498;12.138;2022-11-15T12:13:15;22.00;98.90
14783;DHT22;7483;50.498;12.138;2022-11-15T12:15:52;21.70;98.40
14783;DHT22;7483;50.498;12.138;2022-11-15T12:18:24;21.60;98.80
14783;DHT22;7483;50.498;12.138;2022-11-15T12:20:55;22.40;98.40
14783;DHT22;7483;50.498;12.138;2022-11-15T12:23:28;22.10;98.00
14783;DHT22;7483;50.498;12.138;2022-11-15T12:26:04;20.30;99.40
14783;DHT22;7483;50.498;12.138;2022-11-15T12:28:40;20.70;99.80
14783;DHT22;7483;50.498;12.138;2022-11-15T12:31:36;20.30;99.60
14783;DHT22;7483;50.498;12.138;2022-11-15T12:34:29;20.30;99.90
14783;DHT22;7483;50.498;12.138;2022-11-15T12:37:34;20.70;99.50
14783;DHT22;7483;50.498;12.138;2022-11-15T12:40:22;20.90;99.10
14783;DHT22;7483;50.498;12.138;2022-11-15T12:46:12;19.80;99.90
14783;DHT22;7483;50.498;12.138;2022-11-15T12:48:51;19.90;99.90
14783;DHT22;7483;50.498;12.138;2022-11-15T12:51:23;19.80;99.90
14783;DHT22;7483;50.498;12.138;2022-11-15T12:55:00;19.70;99.90
14783;DHT22;7483;50.498;12.138;2022-11-15T12:57:47;19.40;99.90
14783;DHT22;7483;50.498;12.138;2022-11-15T13:00:43;19.60;99.90
14783;DHT22;7483;50.498;12.138;2022-11-15T13:03:28;19.10;99.90
14783;DHT22;7483;50.498;12.138;2022-11-15T13:06:03;18.70;99.90
14783;DHT22;7483;50.498;12.138;2022-11-15T13:08:46;18.50;99.90
14783;DHT22;7483;50.498;12.138;2022-11-15T13:11:43;18.00;99.90
14783;DHT22;7483;50.498;12.138;2022-11-15T13:14:38;17.80;99.90
14783;DHT22;7483;50.498;12.138;2022-11-15T13:17:24;17.50;99.90
14783;DHT22;7483;50.498;12.138;2022-11-15T13:23:01;17.60;99.90
14783;DHT22;7483;50.498;12.138;2022-11-15T13:26:03;17.80;99.90
14783;DHT22;7483;50.498;12.138;2022-11-15T13:28:44;17.80;99.90
14783;DHT22;7483;50.498;12.138;2022-11-15T13:31:34;17.40;99.90
14783;DHT22;7483;50.498;12.138;2022-11-15T13:34:18;17.70;99.90
14783;DHT22;7483;50.498;12.138;2022-11-15T13:37:35;17.80;99.90
14783;DHT22;7483;50.498;12.138;2022-11-15T13:40:20;17.90;99.90
14783;DHT22;7483;50.498;12.138;2022-11-15T13:42:51;17.80;99.90
14783;DHT22;7483;50.498;12.138;2022-11-15T13:45:21;17.70;99.90
14783;DHT22;7483;50.498;12.138;2022-11-15T13:47:54;18.10;99.90
14783;DHT22;7483;50.498;12.138;2022-11-15T13:50:26;18.20;99.90
14783;DHT22;7483;50.498;12.138;2022-11-15T13:53:01;18.30;99.90
14783;DHT22;7483;50.498;12.138;2022-11-15T13:55:31;18.00;99.90
14783;DHT22;7483;50.498;12.138;2022-11-15T13:58:02;17.70;99.90
14783;DHT22;7483;50.498;12.138;2022-11-15T14:00:36;17.30;99.90
14783;DHT22;7483;50.498;12.138;2022-11-15T14:03:12;16.90;99.90
14783;DHT22;7483;50.498;12.138;2022-11-15T14:06:03;16.70;99.90
14783;DHT22;7483;50.498;12.138;2022-11-15T14:08:38;16.50;99.90
14783;DHT22;7483;50.498;12.138;2022-11-15T14:11:11;16.70;99.90
14783;DHT22;7483;50.498;12.138;2022-11-15T14:13:58;16.80;99.90
14783;DHT22;7483;50.498;12.138;2022-11-15T14:16:35;16.70;99.90
14783;DHT22;7483;50.498;12.138;2022-11-15T14:19:06;16.60;99.90
14783;DHT22;7483;50.498;12.138;2022-11-15T14:21:37;16.40;99.90
14783;DHT22;7483;50.498;12.138;2022-11-15T14:24:45;16.10;99.90
14783;DHT22;7483;50.498;12.138;2022-11-15T14:27:23;15.90;99.90
14783;DHT22;7483;50.498;12.138;2022-11-15T14:29:52;15.70;99.90
14783;DHT22;7483;50.498;12.138;2022-11-15T14:32:23;15.50;99.90
14783;DHT22;7483;50.498;12.138;2022-11-15T14:34:55;15.30;99.90
14783;DHT22;7483;50.498;12.138;2022-11-15T14:37:25;15.10;99.90
14783;DHT22;7483;50.498;12.138;2022-11-15T14:39:55;15.00;99.90
14783;DHT22;7483;50.498;12.138;2022-11-15T14:42:24;14.70;99.90
14783;DHT22;7483;50.498;12.138;2022-11-15T14:44:52;14.70;99.90
14783;DHT22;7483;50.498;12.138;2022-11-15T14:47:22;14.50;99.90
14783;DHT22;7483;50.498;12.138;2022-11-15T14:49:50;14.50;99.90
14783;DHT22;7483;50.498;12.138;2022-11-15T14:52:26;14.30;99.90
14783;DHT22;7483;50.498;12.138;2022-11-15T14:54:59;14.30;99.90
14783;DHT22;7483;50.498;12.138;2022-11-15T14:57:29;14.20;99.90
14783;DHT22;7483;50.498;12.138;2022-11-15T14:59:58;14.10;99.90
14783;DHT22;7483;50.498;12.138;2022-11-15T15:02:40;13.80;99.90
14783;DHT22;7483;50.498;12.138;2022-11-15T15:05:15;13.70;99.90
14783;DHT22;7483;50.498;12.138;2022-11-15T15:07:44;13.60;99.90
14783;DHT22;7483;50.498;12.138;2022-11-15T15:10:14;13.40;99.90
14783;DHT22;7483;50.498;12.138;2022-11-15T15:13:05;13.40;99.90
14783;DHT22;7483;50.498;12.138;2022-11-15T15:15:36;13.40;99.90
14783;DHT22;7483;50.498;12.138;2022-11-15T15:18:06;13.30;99.90
14783;DHT22;7483;50.498;12.138;2022-11-15T15:20:36;13.30;99.90
14783;DHT22;7483;50.498;12.138;2022-11-15T15:23:13;13.20;99.90
14783;DHT22;7483;50.498;12.138;2022-11-15T15:25:44;13.20;99.90
14783;DHT22;7483;50.498;12.138;2022-11-15T15:28:13;13.20;99.90
14783;DHT22;7483;50.498;12.138;2022-11-15T15:30:41;13.10;99.90
14783;DHT22;7483;50.498;12.138;2022-11-15T15:33:11;13.00;99.90
14783;DHT22;7483;50.498;12.138;2022-11-15T15:35:39;12.90;99.90
14783;DHT22;7483;50.498;12.138;2022-11-15T15:38:10;12.70;99.90
14783;DHT22;7483;50.498;12.138;2022-11-15T15:40:39;12.60;99.90
14783;DHT22;7483;50.498;12.138;2022-11-15T15:43:07;12.50;99.90
14783;DHT22;7483;50.498;12.138;2022-11-15T15:45:37;12.40;99.90
14783;DHT22;7483;50.498;12.138;2022-11-15T15:48:07;12.30;99.90
14783;DHT22;7483;50.498;12.138;2022-11-15T15:50:40;12.20;99.90
14783;DHT22;7483;50.498;12.138;2022-11-15T15:53:10;12.10;99.90
14783;DHT22;7483;50.498;12.138;2022-11-15T15:55:39;12.00;99.90
14783;DHT22;7483;50.498;12.138;2022-11-15T15:58:08;11.90;99.90
14783;DHT22;7483;50.498;12.138;2022-11-15T16:00:36;11.90;99.90
14783;DHT22;7483;50.498;12.138;2022-11-15T16:03:05;11.80;99.90
14783;DHT22;7483;50.498;12.138;2022-11-15T16:05:35;11.70;99.90
14783;DHT22;7483;50.498;12.138;2022-11-15T16:08:03;11.70;99.90
14783;DHT22;7483;50.498;12.138;2022-11-15T16:10:33;11.70;99.90
14783;DHT22;7483;50.498;12.138;2022-11-15T16:13:03;11.70;99.90
14783;DHT22;7483;50.498;12.138;2022-11-15T16:15:31;11.60;99.90
14783;DHT22;7483;50.498;12.138;2022-11-15T16:18:01;11.60;99.90
14783;DHT22;7483;50.498;12.138;2022-11-15T16:20:36;11.60;99.90
14783;DHT22;7483;50.498;12.138;2022-11-15T16:23:09;11.60;99.90
14783;DHT22;7483;50.498;12.138;2022-11-15T16:25:41;11.70;99.90
14783;DHT22;7483;50.498;12.138;2022-11-15T16:28:17;11.70;99.90
14783;DHT22;7483;50.498;12.138;2022-11-15T16:30:47;11.70;99.90
14783;DHT22;7483;50.498;12.138;2022-11-15T16:33:23;11.80;99.90
14783;DHT22;7483;50.498;12.138;2022-11-15T16:35:52;11.70;99.90
14783;DHT22;7483;50.498;12.138;2022-11-15T16:38:20;11.70;99.90
14783;DHT22;7483;50.498;12.138;2022-11-15T16:40:49;11.70;99.90
14783;DHT22;7483;50.498;12.138;2022-11-15T16:43:17;11.60;99.90
14783;DHT22;7483;50.498;12.138;2022-11-15T16:45:45;11.60;99.90
14783;DHT22;7483;50.498;12.138;2022-11-15T16:48:20;11.50;99.90
14783;DHT22;7483;50.498;12.138;2022-11-15T16:50:54;11.40;99.90
14783;DHT22;7483;50.498;12.138;2022-11-15T16:53:23;11.30;99.90
14783;DHT22;7483;50.498;12.138;2022-11-15T16:55:53;11.20;99.90
14783;DHT22;7483;50.498;12.138;2022-11-15T16:58:22;11.20;99.90
14783;DHT22;7483;50.498;12.138;2022-11-15T17:00:51;11.10;99.90
14783;DHT22;7483;50.498;12.138;2022-11-15T17:03:20;11.00;99.90
14783;DHT22;7483;50.498;12.138;2022-11-15T17:05:49;10.80;99.90
14783;DHT22;7483;50.498;12.138;2022-11-15T17:08:19;10.80;99.90
14783;DHT22;7483;50.498;12.138;2022-11-15T17:10:50;10.80;99.90
14783;DHT22;7483;50.498;12.138;2022-11-15T17:13:18;10.60;99.90
14783;DHT22;7483;50.498;12.138;2022-11-15T17:15:46;10.40;99.90
14783;DHT22;7483;50.498;12.138;2022-11-15T17:18:14;10.30;99.90
14783;DHT22;7483;50.498;12.138;2022-11-15T17:20:43;10.30;99.90
14783;DHT22;7483;50.498;12.138;2022-11-15T17:23:12;10.20;99.90
14783;DHT22;7483;50.498;12.138;2022-11-15T17:25:42;10.20;99.90
14783;DHT22;7483;50.498;12.138;2022-11-15T17:28:10;10.10;99.90
14783;DHT22;7483;50.498;12.138;2022-11-15T17:30:40;10.10;99.90
14783;DHT22;7483;50.498;12.138;2022-11-15T17:33:10;10.10;99.90
14783;DHT22;7483;50.498;12.138;2022-11-15T17:35:38;10.00;99.90
14783;DHT22;7483;50.498;12.138;2022-11-15T17:38:06;10.00;99.90